Time;durP1;ratioP1;P1;durP2;ratioP2;P2;SDS_P1;SDS_P2;PMS_P1;PMS_P2;Temp;Humidity;BMP_temperature;BMP_pressure;BME280_temperature;BME280_humidity;BME280_pressure;Samples;Min_cycle;Max_cycle;Signal;HPM_P1;HPM_P2
2024/02/13 00:00:10;;;;;;;4.85;4.38;;;1.10;99.90;;;;;;5062345;28;20052;-65
2024/02/13 00:02:40;;;;;;;4.65;4.25;;;1.10;99.90;;;;;;5063406;28;20052;-61
2024/02/13 00:05:08;;;;;;;7.10;4.38;;;1.10;99.90;;;;;;5063319;28;20115;-60
2024/02/13 00:07:38;;;;;;;5.95;4.05;;;1.10;99.90;;;;;;5062860;28;20047;-61
2024/02/13 00:10:13;;;;;;;6.23;4.87;;;1.10;99.90;;;;;;5063227;28;20102;-62
2024/02/13 00:12:40;;;;;;;8.70;4.65;;;1.10;99.90;;;;;;5062579;28;20366;-59
2024/02/13 00:15:10;;;;;;;6.00;4.07;;;1.10;99.90;;;;;;5062679;28;20044;-63
2024/02/13 00:17:41;;;;;;;7.18;4.45;;;1.10;99.90;;;;;;5062634;28;20761;-64
2024/02/13 00:20:10;;;;;;;5.10;4.22;;;1.10;99.90;;;;;;5062998;28;20047;-63
2024/02/13 00:22:37;;;;;;;6.90;4.65;;;1.10;99.90;;;;;;5063186;28;20060;-61
2024/02/13 00:25:05;;;;;;;4.80;4.20;;;1.20;99.90;;;;;;5063535;28;20495;-61
2024/02/13 00:27:33;;;;;;;6.43;4.65;;;1.10;99.90;;;;;;5065556;28;20153;-64
2024/02/13 00:30:09;;;;;;;5.38;4.20;;;1.10;99.90;;;;;;5067118;28;20364;-63
2024/02/13 00:32:39;;;;;;;7.07;4.95;;;1.10;99.90;;;;;;5066726;28;20058;-62
2024/02/13 00:35:08;;;;;;;;;;;1.20;99.90;;;;;;5067437;28;20071;-61
2024/02/13 00:37:36;;;;;;;6.70;4.28;;;1.20;99.90;;;;;;5065853;28;19928;-62
2024/02/13 00:40:05;;;;;;;8.07;4.65;;;1.20;99.90;;;;;;5066234;28;20123;-60
2024/02/13 00:42:32;;;;;;;6.97;4.30;;;1.20;99.90;;;;;;5065800;28;21561;-63
2024/02/13 00:45:00;;;;;;;6.28;4.93;;;1.20;99.90;;;;;;5066589;28;20075;-60
2024/02/13 00:47:30;;;;;;;5.28;4.03;;;1.20;99.90;;;;;;5065514;28;20047;-62
2024/02/13 00:49:58;;;;;;;6.45;4.93;;;1.20;99.90;;;;;;5066900;28;20506;-63
2024/02/13 00:52:28;;;;;;;8.18;4.90;;;1.20;99.90;;;;;;5065936;28;20138;-59
2024/02/13 00:54:56;;;;;;;8.63;5.18;;;1.20;99.90;;;;;;5066396;28;20052;-62
2024/02/13 00:57:24;;;;;;;7.63;4.63;;;1.20;99.90;;;;;;5066011;28;20052;-59
2024/02/13 00:59:51;;;;;;;8.07;4.93;;;1.20;99.90;;;;;;5065797;28;20042;-61
2024/02/13 01:02:19;;;;;;;8.45;5.30;;;1.20;99.90;;;;;;5066073;28;20057;-62
2024/02/13 01:04:47;;;;;;;8.10;5.03;;;1.20;99.90;;;;;;5066337;28;20480;-62
2024/02/13 01:07:17;;;;;;;8.90;5.22;;;1.20;99.90;;;;;;5063398;28;20068;-61
2024/02/13 01:09:44;;;;;;;8.50;5.15;;;1.20;99.90;;;;;;5066069;28;20049;-59
2024/02/13 01:12:11;;;;;;;12.55;6.32;;;1.20;99.90;;;;;;5066089;28;20059;-62
2024/02/13 01:14:38;;;;;;;7.45;6.07;;;1.20;99.90;;;;;;5066043;28;20044;-61
2024/02/13 01:17:05;;;;;;;10.70;5.38;;;1.20;99.90;;;;;;5065529;28;20053;-60
2024/02/13 01:19:33;;;;;;;9.40;5.82;;;1.20;99.90;;;;;;5066084;28;20125;-63
2024/02/13 01:22:00;;;;;;;6.85;5.30;;;1.20;99.90;;;;;;5064583;28;20080;-60
2024/02/13 01:24:27;;;;;;;8.20;5.05;;;1.30;99.90;;;;;;5064175;28;20053;-62
2024/02/13 01:26:57;;;;;;;9.93;6.15;;;1.30;99.90;;;;;;5065271;28;20578;-63
2024/02/13 01:29:24;;;;;;;9.00;5.72;;;1.20;99.90;;;;;;5065347;28;20054;-59
2024/02/13 01:31:52;;;;;;;8.73;6.22;;;1.20;99.90;;;;;;5065848;28;20055;-62
2024/02/13 01:34:18;;;;;;;9.55;5.70;;;1.30;99.90;;;;;;5065465;28;20739;-59
2024/02/13 01:36:45;;;;;;;7.03;5.07;;;1.30;99.90;;;;;;5064651;28;20044;-59
2024/02/13 01:39:12;;;;;;;10.13;5.47;;;1.30;99.90;;;;;;5065159;28;20094;-61
2024/02/13 01:41:39;;;;;;;9.18;5.10;;;1.30;99.90;;;;;;5065338;28;20139;-63
2024/02/13 01:44:06;;;;;;;9.13;5.80;;;1.30;99.90;;;;;;5064786;28;20127;-58
2024/02/13 01:46:33;;;;;;;11.27;5.95;;;1.30;99.90;;;;;;5065122;28;20052;-63
2024/02/13 01:49:03;;;;;;;10.15;5.88;;;1.30;99.90;;;;;;5064677;28;20056;-59
2024/02/13 01:51:34;;;;;;;12.13;6.43;;;1.30;99.90;;;;;;5064833;28;20127;-61
2024/02/13 01:54:05;;;;;;;12.13;6.28;;;1.30;99.90;;;;;;5064701;28;20086;-62
2024/02/13 01:56:33;;;;;;;9.35;5.85;;;1.30;99.90;;;;;;5064791;28;20052;-61
2024/02/13 01:59:03;;;;;;;9.23;6.32;;;1.30;99.90;;;;;;5065274;28;20895;-62
2024/02/13 02:01:33;;;;;;;11.77;6.70;;;1.30;99.90;;;;;;5080917;28;20135;-65
2024/02/13 02:04:03;;;;;;;10.57;7.47;;;1.30;99.90;;;;;;5065076;28;20084;-62
2024/02/13 02:06:30;;;;;;;14.38;8.68;;;1.30;99.90;;;;;;5063993;28;20067;-64
2024/02/13 02:08:58;;;;;;;10.60;7.22;;;1.40;99.90;;;;;;5064830;28;20075;-63
2024/02/13 02:11:25;;;;;;;11.85;6.97;;;1.30;99.90;;;;;;5064545;28;20040;-60
2024/02/13 02:13:52;;;;;;;13.25;8.02;;;1.30;99.90;;;;;;5065265;28;20047;-59
2024/02/13 02:16:20;;;;;;;12.55;8.50;;;1.40;99.90;;;;;;5064596;28;20880;-64
2024/02/13 02:18:47;;;;;;;10.00;6.82;;;1.30;99.90;;;;;;5063889;28;20051;-62
2024/02/13 02:21:17;;;;;;;13.82;8.45;;;1.30;99.90;;;;;;5064653;28;20102;-59
2024/02/13 02:23:44;;;;;;;15.00;8.07;;;1.30;99.90;;;;;;5064422;28;20044;-61
2024/02/13 02:26:11;;;;;;;16.92;7.78;;;1.30;99.90;;;;;;5064480;28;20090;-61
2024/02/13 02:28:38;;;;;;;13.15;8.27;;;1.30;99.90;;;;;;5064318;28;20048;-59
2024/02/13 02:31:05;;;;;;;13.80;10.57;;;1.30;99.90;;;;;;5065181;28;20044;-62
2024/02/13 02:33:32;;;;;;;11.38;8.80;;;1.30;99.90;;;;;;5063778;28;20733;-60
2024/02/13 02:35:59;;;;;;;10.60;8.73;;;1.30;99.90;;;;;;5064840;28;20092;-60
2024/02/13 02:38:26;;;;;;;13.02;8.23;;;1.30;99.90;;;;;;5064285;28;20051;-63
2024/02/13 02:40:53;;;;;;;12.93;8.30;;;1.30;99.90;;;;;;5064474;28;20131;-60
2024/02/13 02:43:20;;;;;;;13.63;9.20;;;1.30;99.90;;;;;;5063431;28;20044;-64
2024/02/13 02:45:47;;;;;;;14.20;7.78;;;1.30;99.90;;;;;;5064225;28;20062;-59
2024/02/13 02:48:16;;;;;;;11.38;8.10;;;1.30;99.90;;;;;;5061232;28;20415;-62
2024/02/13 02:50:44;;;;;;;12.77;8.07;;;1.30;99.90;;;;;;5064016;28;20059;-62
2024/02/13 02:53:11;;;;;;;13.93;8.40;;;1.30;99.90;;;;;;5063560;28;20651;-62
2024/02/13 02:55:38;;;;;;;11.73;6.90;;;1.30;99.90;;;;;;5064508;28;20044;-59
2024/02/13 02:58:05;;;;;;;15.05;9.95;;;1.30;99.90;;;;;;5062137;28;20568;-62
2024/02/13 03:00:32;;;;;;;14.65;8.80;;;1.30;99.90;;;;;;5060841;28;20162;-63
2024/02/13 03:02:59;;;;;;;12.07;8.48;;;1.30;99.90;;;;;;5062682;28;20054;-61
2024/02/13 03:05:28;;;;;;;15.18;7.40;;;1.30;99.90;;;;;;5063222;28;20051;-62
2024/02/13 03:07:55;;;;;;;10.57;7.55;;;1.30;99.90;;;;;;5062243;28;21034;-62
2024/02/13 03:10:22;;;;;;;13.13;8.48;;;1.30;99.90;;;;;;5063405;28;20045;-61
2024/02/13 03:12:50;;;;;;;13.32;8.32;;;1.30;99.90;;;;;;5063993;28;20064;-61
2024/02/13 03:15:18;;;;;;;11.05;8.10;;;1.30;99.90;;;;;;5063572;28;20844;-61
2024/02/13 03:17:48;;;;;;;16.83;8.18;;;1.30;99.90;;;;;;5063018;28;20039;-61
2024/02/13 03:20:15;;;;;;;11.80;7.93;;;1.30;99.90;;;;;;5063577;28;20040;-61
2024/02/13 03:22:42;;;;;;;14.20;8.73;;;1.30;99.90;;;;;;5063083;28;20048;-65
2024/02/13 03:25:09;;;;;;;13.15;8.88;;;1.30;99.90;;;;;;5064040;28;20045;-63
2024/02/13 03:27:36;;;;;;;13.32;8.05;;;1.30;99.90;;;;;;5063914;28;20044;-61
2024/02/13 03:30:04;;;;;;;12.88;8.65;;;1.30;99.90;;;;;;5063889;28;20055;-61
2024/02/13 03:32:31;;;;;;;12.57;7.55;;;1.30;99.90;;;;;;5064111;28;20048;-63
2024/02/13 03:34:58;;;;;;;16.15;9.48;;;1.30;99.90;;;;;;5064070;28;20379;-62
2024/02/13 03:37:25;;;;;;;10.05;7.10;;;1.30;99.90;;;;;;5063250;28;20391;-62
2024/02/13 03:39:52;;;;;;;13.52;7.13;;;1.30;99.90;;;;;;5063459;28;20105;-62
2024/02/13 03:42:19;;;;;;;10.10;6.65;;;1.30;99.90;;;;;;5063514;28;20067;-59
2024/02/13 03:44:45;;;;;;;13.30;7.10;;;1.30;99.90;;;;;;5063798;28;20121;-64
2024/02/13 03:47:13;;;;;;;10.93;7.93;;;1.30;99.90;;;;;;5063501;28;20044;-61
2024/02/13 03:49:40;;;;;;;10.38;6.55;;;1.30;99.90;;;;;;5063788;28;20098;-61
2024/02/13 03:52:09;;;;;;;10.45;6.95;;;1.30;99.90;;;;;;5062870;28;20893;-59
2024/02/13 03:54:37;;;;;;;10.80;7.47;;;1.30;99.90;;;;;;5061295;28;20058;-59
2024/02/13 03:57:04;;;;;;;9.93;7.03;;;1.30;99.90;;;;;;5062750;28;20075;-60
2024/02/13 03:59:31;;;;;;;9.43;6.18;;;1.30;99.90;;;;;;5063068;28;20052;-60
2024/02/13 04:01:59;;;;;;;12.20;7.20;;;1.30;99.90;;;;;;5066964;28;20047;-61
2024/02/13 04:04:26;;;;;;;9.73;5.63;;;1.30;99.90;;;;;;5066895;28;20102;-61
2024/02/13 04:06:53;;;;;;;12.45;6.28;;;1.30;99.90;;;;;;5066208;28;20063;-63
2024/02/13 04:09:20;;;;;;;9.90;6.10;;;1.30;99.90;;;;;;5067307;28;20048;-63
2024/02/13 04:11:47;;;;;;;10.27;7.10;;;1.30;99.90;;;;;;5066749;28;20040;-62
2024/02/13 04:14:14;;;;;;;10.35;6.47;;;1.30;99.90;;;;;;5066810;28;20060;-59
2024/02/13 04:16:42;;;;;;;13.23;6.35;;;1.30;99.90;;;;;;5066352;28;20124;-61
2024/02/13 04:19:11;;;;;;;8.85;6.57;;;1.30;99.90;;;;;;5067108;28;20048;-60
2024/02/13 04:21:38;;;;;;;9.20;5.75;;;1.30;99.90;;;;;;5067350;28;20037;-63
2024/02/13 04:24:06;;;;;;;10.70;6.03;;;1.30;99.90;;;;;;5098773;27;20040;-59
2024/02/13 04:26:39;;;;;;;7.55;6.07;;;1.30;99.90;;;;;;5065855;28;20047;-61
2024/02/13 04:29:07;;;;;;;9.20;5.68;;;1.30;99.90;;;;;;5066479;28;20131;-60
2024/02/13 04:31:35;;;;;;;7.35;5.70;;;1.30;99.90;;;;;;5066677;28;20089;-64
2024/02/13 04:34:02;;;;;;;9.13;5.50;;;1.30;99.90;;;;;;5067375;28;20135;-63
2024/02/13 04:36:31;;;;;;;9.05;5.65;;;1.30;99.90;;;;;;5066487;28;20044;-62
2024/02/13 04:38:58;;;;;;;11.10;5.40;;;1.30;99.90;;;;;;5066393;28;20111;-62
2024/02/13 04:41:25;;;;;;;8.80;5.78;;;1.30;99.90;;;;;;5066771;28;20044;-61
2024/02/13 04:43:54;;;;;;;8.18;5.70;;;1.20;99.90;;;;;;5066512;28;20106;-62
2024/02/13 04:46:24;;;;;;;9.18;5.25;;;1.20;99.90;;;;;;5065791;28;20365;-62
2024/02/13 04:48:52;;;;;;;6.80;4.85;;;1.20;99.90;;;;;;5066373;28;20056;-64
2024/02/13 04:51:20;;;;;;;6.93;5.03;;;1.30;99.90;;;;;;5066252;28;20067;-61
2024/02/13 04:53:47;;;;;;;8.90;5.20;;;1.30;99.90;;;;;;5065950;28;20151;-62
2024/02/13 04:56:15;;;;;;;7.72;4.90;;;1.30;99.90;;;;;;5065878;28;20044;-65
2024/02/13 04:58:43;;;;;;;7.35;4.82;;;1.30;99.90;;;;;;5066295;28;20696;-61
2024/02/13 05:01:13;;;;;;;7.45;4.70;;;1.30;99.90;;;;;;5066267;28;20040;-64
2024/02/13 05:09:00;;;;;;;7.38;5.05;;;1.30;99.90;;;;;;5064298;28;20071;-60
2024/02/13 05:11:27;;;;;;;9.48;5.65;;;1.30;99.90;;;;;;5064096;28;20120;-61
2024/02/13 05:13:54;;;;;;;7.13;4.85;;;1.30;99.90;;;;;;5065800;28;20457;-60
2024/02/13 05:16:26;;;;;;;6.63;5.10;;;1.30;99.90;;;;;;5065370;28;20040;-63
2024/02/13 05:18:54;;;;;;;7.70;5.13;;;1.30;99.90;;;;;;5065982;28;20074;-61
2024/02/13 05:21:21;;;;;;;9.77;4.75;;;1.30;99.90;;;;;;5064918;28;20167;-60
2024/02/13 05:23:49;;;;;;;6.25;5.10;;;1.30;99.90;;;;;;5065178;28;20054;-61
2024/02/13 05:26:20;;;;;;;5.35;4.45;;;1.30;99.90;;;;;;5065280;28;21375;-61
2024/02/13 05:28:48;;;;;;;6.57;4.93;;;1.30;99.90;;;;;;5065224;28;20035;-61
2024/02/13 05:31:18;;;;;;;8.95;5.90;;;1.30;99.90;;;;;;5065129;28;20048;-65
2024/02/13 05:33:45;;;;;;;6.47;4.50;;;1.30;99.90;;;;;;5065630;28;20094;-62
2024/02/13 05:36:13;;;;;;;6.15;4.32;;;1.30;99.90;;;;;;5064406;28;20040;-63
2024/02/13 05:38:44;;;;;;;7.35;4.63;;;1.30;99.90;;;;;;5064591;28;20567;-61
2024/02/13 05:41:12;;;;;;;9.30;4.78;;;1.30;99.90;;;;;;5065016;28;20044;-62
2024/02/13 05:43:42;;;;;;;7.68;4.38;;;1.30;99.90;;;;;;5064654;28;20048;-64
2024/02/13 05:46:09;;;;;;;7.88;4.93;;;1.30;99.90;;;;;;5065846;28;20039;-63
2024/02/13 05:48:36;;;;;;;6.35;4.78;;;1.30;99.90;;;;;;5064241;28;20048;-63
2024/02/13 05:51:10;;;;;;;6.15;3.97;;;1.30;99.90;;;;;;5064420;28;20071;-61
2024/02/13 05:53:38;;;;;;;7.90;5.13;;;1.40;99.90;;;;;;5064617;28;20040;-61
2024/02/13 05:56:05;;;;;;;8.05;5.13;;;1.40;99.90;;;;;;5065037;28;20047;-60
2024/02/13 05:58:33;;;;;;;7.60;5.25;;;1.40;99.90;;;;;;5064220;28;20052;-64
2024/02/13 06:01:00;;;;;;;7.72;6.07;;;1.30;99.90;;;;;;5064745;28;20051;-64
2024/02/13 06:03:28;;;;;;;12.40;7.00;;;1.30;99.90;;;;;;5064342;28;20040;-65
2024/02/13 06:05:55;;;;;;;8.70;5.47;;;1.30;99.90;;;;;;5064455;28;20131;-63
2024/02/13 06:08:22;;;;;;;14.57;5.68;;;1.40;99.90;;;;;;5063114;28;20044;-63
2024/02/13 06:10:50;;;;;;;8.70;6.00;;;1.40;99.90;;;;;;5062124;28;20036;-65
2024/02/13 06:13:17;;;;;;;8.00;5.10;;;1.40;99.90;;;;;;5064451;28;20068;-61
2024/02/13 06:15:44;;;;;;;7.18;4.38;;;1.40;99.90;;;;;;5064647;28;20048;-63
2024/02/13 06:18:11;;;;;;;11.10;5.28;;;1.40;99.90;;;;;;5063890;28;20415;-66
2024/02/13 06:20:39;;;;;;;10.52;5.55;;;1.40;99.90;;;;;;5064708;28;20097;-61
2024/02/13 06:23:06;;;;;;;8.82;4.93;;;1.40;99.90;;;;;;5065198;28;20080;-62
2024/02/13 06:25:33;;;;;;;12.25;5.93;;;1.40;99.90;;;;;;5064350;28;20055;-62
2024/02/13 06:28:00;;;;;;;9.63;5.65;;;1.40;99.90;;;;;;5063436;28;20047;-60
2024/02/13 06:30:28;;;;;;;9.10;5.28;;;1.40;99.90;;;;;;5064987;28;20048;-60
2024/02/13 06:32:55;;;;;;;10.85;5.18;;;1.40;99.90;;;;;;5062893;28;20789;-65
2024/02/13 06:35:22;;;;;;;14.13;6.28;;;1.50;99.90;;;;;;5063552;28;20048;-62
2024/02/13 06:37:50;;;;;;;10.05;5.03;;;1.50;99.90;;;;;;5062316;28;20071;-65
2024/02/13 06:40:17;;;;;;;10.73;5.10;;;1.40;99.90;;;;;;5063296;28;20051;-63
2024/02/13 06:42:44;;;;;;;9.82;4.80;;;1.50;99.90;;;;;;5063754;28;20499;-65
2024/02/13 06:45:11;;;;;;;8.45;5.40;;;1.50;99.90;;;;;;5063479;28;20828;-62
2024/02/13 06:47:38;;;;;;;13.38;5.30;;;1.50;99.90;;;;;;5062278;28;20457;-63
2024/02/13 06:50:11;;;;;;;9.90;4.50;;;1.50;99.90;;;;;;5063740;28;20487;-62
2024/02/13 06:52:41;;;;;;;7.93;4.80;;;1.50;99.90;;;;;;5062764;28;20391;-63
2024/02/13 06:55:08;;;;;;;7.15;4.53;;;1.50;99.90;;;;;;5062779;28;20051;-60
2024/02/13 06:57:35;;;;;;;7.53;4.72;;;1.50;99.90;;;;;;5063629;28;20048;-62
2024/02/13 07:00:11;;;;;;;7.90;4.90;;;1.50;99.90;;;;;;5063426;28;21484;-60
2024/02/13 07:02:38;;;;;;;6.00;3.72;;;1.50;99.90;;;;;;5062634;28;20053;-60
2024/02/13 07:05:06;;;;;;;7.80;4.45;;;1.50;99.90;;;;;;5064547;28;20116;-60
2024/02/13 07:07:33;;;;;;;8.25;4.88;;;1.50;99.90;;;;;;5062874;28;20047;-62
2024/02/13 07:10:13;;;;;;;4.88;3.65;;;1.50;99.90;;;;;;5064056;28;20566;-59
2024/02/13 07:12:41;;;;;;;6.80;4.30;;;1.50;99.90;;;;;;5063039;28;20048;-61
2024/02/13 07:15:08;;;;;;;4.85;2.72;;;1.50;99.90;;;;;;5064097;28;20159;-62
2024/02/13 07:17:36;;;;;;;3.10;2.80;;;1.50;99.90;;;;;;5062463;28;20186;-62
2024/02/13 07:20:22;;;;;;;4.05;2.70;;;1.50;99.90;;;;;;5063444;28;20045;-61
2024/02/13 07:22:50;;;;;;;7.53;2.97;;;1.50;99.90;;;;;;5062665;28;20037;-62
2024/02/13 07:25:17;;;;;;;4.25;2.63;;;1.50;99.90;;;;;;5061495;28;20045;-64
2024/02/13 07:27:46;;;;;;;6.90;2.72;;;1.50;99.90;;;;;;5060956;28;20056;-61
2024/02/13 07:30:15;;;;;;;4.10;3.17;;;1.50;99.90;;;;;;5060351;28;20054;-62
2024/02/13 07:32:42;;;;;;;2.97;2.42;;;1.50;99.90;;;;;;5060056;28;20125;-59
2024/02/13 07:35:09;;;;;;;2.67;2.33;;;1.50;99.90;;;;;;5061696;28;20072;-61
2024/02/13 07:37:36;;;;;;;1.88;1.70;;;1.50;99.90;;;;;;5060508;28;21399;-61
2024/02/13 07:40:04;;;;;;;2.45;2.25;;;1.50;99.90;;;;;;5063033;28;20113;-61
2024/02/13 07:42:31;;;;;;;3.53;2.55;;;1.50;99.90;;;;;;5063279;28;20051;-64
2024/02/13 07:44:58;;;;;;;5.38;2.40;;;1.50;99.90;;;;;;5062713;28;20040;-63
2024/02/13 07:47:26;;;;;;;2.35;2.00;;;1.50;99.90;;;;;;5063280;28;20101;-64
2024/02/13 07:49:55;;;;;;;3.15;2.40;;;1.50;99.90;;;;;;5062235;28;20056;-60
2024/02/13 07:52:22;;;;;;;3.63;2.50;;;1.50;99.90;;;;;;5062316;28;20179;-62
2024/02/13 07:54:50;;;;;;;25.10;4.05;;;1.50;99.90;;;;;;5061942;28;20153;-63
2024/02/13 07:57:18;;;;;;;3.15;2.85;;;1.50;99.90;;;;;;5062753;28;20139;-63
2024/02/13 07:59:46;;;;;;;3.38;2.28;;;1.50;99.90;;;;;;5062930;28;20063;-59
2024/02/13 08:02:14;;;;;;;2.88;2.28;;;1.50;99.90;;;;;;5062802;28;20055;-59
2024/02/13 08:04:42;;;;;;;4.22;2.42;;;1.50;99.90;;;;;;5061014;28;20055;-59
2024/02/13 08:07:09;;;;;;;2.95;2.58;;;1.50;99.90;;;;;;5061717;28;20541;-64
2024/02/13 08:09:36;;;;;;;2.10;1.80;;;1.50;99.90;;;;;;5062394;28;20121;-60
2024/02/13 08:12:06;;;;;;;2.85;1.88;;;1.50;99.90;;;;;;5062827;28;20071;-62
2024/02/13 08:14:34;;;;;;;2.65;1.98;;;1.50;99.90;;;;;;5062287;28;20135;-62
2024/02/13 08:17:06;;;;;;;2.10;1.92;;;1.50;99.90;;;;;;5062904;28;20049;-60
2024/02/13 08:19:34;;;;;;;3.50;2.88;;;1.50;99.90;;;;;;5062444;28;20056;-64
2024/02/13 08:22:01;;;;;;;2.90;2.20;;;1.50;99.90;;;;;;5062544;28;20181;-64
2024/02/13 08:24:29;;;;;;;2.67;2.20;;;1.50;99.90;;;;;;5062441;28;20051;-61
2024/02/13 08:26:56;;;;;;;2.50;2.25;;;1.40;99.90;;;;;;5062413;28;20055;-60
2024/02/13 08:29:23;;;;;;;4.18;2.58;;;1.40;99.90;;;;;;5062933;28;20520;-66
2024/02/13 08:31:50;;;;;;;3.88;2.88;;;1.40;99.90;;;;;;5062843;28;20045;-64
2024/02/13 08:34:18;;;;;;;3.05;2.60;;;1.40;99.90;;;;;;5062550;28;20033;-62
2024/02/13 08:36:48;;;;;;;3.35;3.05;;;1.40;99.90;;;;;;5060635;28;20048;-60
2024/02/13 08:39:15;;;;;;;3.35;2.38;;;1.30;99.90;;;;;;5061126;28;20151;-61
2024/02/13 08:41:42;;;;;;;4.63;2.78;;;1.30;99.90;;;;;;5061483;28;20049;-60
2024/02/13 08:44:10;;;;;;;2.97;2.08;;;1.30;99.90;;;;;;5061964;28;20048;-63
2024/02/13 08:46:37;;;;;;;1.98;1.77;;;1.30;99.90;;;;;;5063130;28;20135;-60
2024/02/13 08:49:04;;;;;;;4.85;2.88;;;1.30;99.90;;;;;;5065252;28;20058;-62
2024/02/13 08:51:32;;;;;;;6.45;2.17;;;1.30;99.90;;;;;;5065790;28;20053;-59
2024/02/13 08:54:04;;;;;;;1.85;1.63;;;1.30;99.90;;;;;;5065890;28;20048;-62
2024/02/13 08:56:32;;;;;;;2.00;1.58;;;1.30;99.90;;;;;;5066103;28;20056;-61
2024/02/13 08:59:00;;;;;;;2.55;1.90;;;1.30;99.90;;;;;;5065874;28;20739;-60
2024/02/13 09:01:29;;;;;;;2.30;1.90;;;1.30;99.90;;;;;;5065464;28;20483;-62
2024/02/13 09:03:57;;;;;;;3.15;1.88;;;1.30;99.90;;;;;;5065981;28;20117;-62
2024/02/13 09:06:24;;;;;;;4.53;2.10;;;1.30;99.90;;;;;;5065739;28;20110;-61
2024/02/13 09:08:51;;;;;;;2.72;2.22;;;1.30;99.90;;;;;;5065261;28;20155;-62
2024/02/13 09:11:18;;;;;;;2.00;1.63;;;1.20;99.90;;;;;;5066356;28;20117;-62
2024/02/13 09:13:46;;;;;;;1.58;1.45;;;1.20;99.90;;;;;;5065081;28;20047;-60
2024/02/13 09:16:13;;;;;;;1.52;1.00;;;1.20;99.90;;;;;;5065289;28;20695;-63
2024/02/13 09:18:40;;;;;;;1.15;1.10;;;1.20;99.90;;;;;;5065006;28;20044;-60
2024/02/13 09:21:09;;;;;;;2.03;1.20;;;1.10;99.90;;;;;;5065452;28;20044;-62
2024/02/13 09:23:37;;;;;;;2.50;1.25;;;1.10;99.90;;;;;;5064599;28;20036;-60
2024/02/13 09:26:05;;;;;;;1.65;0.95;;;1.10;99.90;;;;;;5065120;28;20039;-63
2024/02/13 09:28:32;;;;;;;1.40;1.30;;;1.10;99.90;;;;;;5064436;28;20075;-65
2024/02/13 09:30:59;;;;;;;1.00;0.90;;;1.10;99.90;;;;;;5065403;28;20060;-62
2024/02/13 09:33:26;;;;;;;1.30;1.20;;;1.10;99.90;;;;;;5065040;28;20055;-64
2024/02/13 09:35:54;;;;;;;1.23;1.13;;;1.10;99.90;;;;;;5064945;28;20098;-64
2024/02/13 09:38:22;;;;;;;1.33;1.23;;;1.10;99.90;;;;;;5065253;28;20045;-63
2024/02/13 09:40:50;;;;;;;1.40;1.20;;;1.10;99.90;;;;;;5065372;28;20102;-61
2024/02/13 09:43:18;;;;;;;1.50;0.85;;;1.10;99.90;;;;;;5064868;28;20532;-65
2024/02/13 09:45:45;;;;;;;0.98;0.90;;;1.10;99.90;;;;;;5065626;28;20048;-62
2024/02/13 09:48:25;;;;;;;2.63;0.60;;;1.20;99.90;;;;;;5063254;28;20051;-62
2024/02/13 09:50:57;;;;;;;0.77;0.77;;;1.20;99.90;;;;;;5064611;28;20062;-59
2024/02/13 09:53:29;;;;;;;1.10;0.50;;;1.20;99.90;;;;;;5064408;28;20123;-59
2024/02/13 09:56:00;;;;;;;1.42;0.88;;;1.20;99.90;;;;;;5064225;28;20553;-59
2024/02/13 09:58:28;;;;;;;0.55;0.40;;;1.20;99.90;;;;;;5064442;28;20044;-60
2024/02/13 10:00:57;;;;;;;0.55;0.47;;;1.20;99.90;;;;;;5063495;28;20048;-62
2024/02/13 10:03:27;;;;;;;1.60;0.60;;;1.20;99.90;;;;;;5064418;28;20037;-63
2024/02/13 10:05:55;;;;;;;0.90;0.88;;;1.20;99.90;;;;;;5064783;28;20060;-62
2024/02/13 10:08:30;;;;;;;0.68;0.60;;;1.30;99.90;;;;;;5064007;28;20116;-63
2024/02/13 10:11:02;;;;;;;2.47;0.80;;;1.30;99.90;;;;;;5064474;28;20041;-62
2024/02/13 10:13:31;;;;;;;1.23;0.80;;;1.30;99.90;;;;;;5064873;28;20052;-59
2024/02/13 10:15:58;;;;;;;1.25;0.70;;;1.30;99.90;;;;;;5064414;28;20076;-60
2024/02/13 10:18:25;;;;;;;0.63;0.47;;;1.30;99.90;;;;;;5064399;28;20070;-65
2024/02/13 10:20:54;;;;;;;0.75;0.60;;;1.30;99.90;;;;;;5064788;28;20049;-60
2024/02/13 10:23:24;;;;;;;1.42;0.80;;;1.30;99.90;;;;;;5064046;28;20123;-61
2024/02/13 10:25:53;;;;;;;1.13;0.70;;;1.30;99.90;;;;;;5064993;28;20499;-62
2024/02/13 10:28:22;;;;;;;0.85;0.45;;;1.30;99.90;;;;;;5064282;28;20094;-61
2024/02/13 10:30:52;;;;;;;0.70;0.70;;;1.30;99.90;;;;;;5064446;28;20044;-61
2024/02/13 10:33:19;;;;;;;0.70;0.43;;;1.30;99.90;;;;;;5063902;28;20040;-62
2024/02/13 10:35:52;;;;;;;2.03;0.75;;;1.30;99.90;;;;;;5063845;28;20758;-62
2024/02/13 10:38:25;;;;;;;0.98;0.40;;;1.30;99.90;;;;;;5062174;28;20076;-59
2024/02/13 10:40:55;;;;;;;0.68;0.47;;;1.30;99.90;;;;;;5063791;28;20055;-60
2024/02/13 10:43:24;;;;;;;2.03;0.40;;;1.30;99.90;;;;;;5063760;28;20804;-61
2024/02/13 10:45:57;;;;;;;0.55;0.25;;;1.20;99.90;;;;;;5064364;28;20048;-59
2024/02/13 10:48:40;;;;;;;0.75;0.47;;;1.20;99.90;;;;;;5063650;28;20040;-65
2024/02/13 10:51:08;;;;;;;0.60;0.38;;;1.20;99.90;;;;;;5064254;28;20055;-60
2024/02/13 10:53:36;;;;;;;1.90;0.30;;;1.20;99.90;;;;;;5062751;28;21255;-61
2024/02/13 10:56:04;;;;;;;3.40;0.93;;;1.20;99.90;;;;;;5062697;28;20052;-59
2024/02/13 10:58:32;;;;;;;0.70;0.30;;;1.20;99.90;;;;;;5055914;28;20169;-62
2024/02/13 11:01:02;;;;;;;1.38;0.40;;;1.20;99.90;;;;;;5063059;28;20063;-63
2024/02/13 11:03:30;;;;;;;1.07;0.33;;;1.20;99.90;;;;;;5062444;28;20036;-59
2024/02/13 11:05:57;;;;;;;0.70;0.20;;;1.20;99.90;;;;;;5061952;28;21046;-60
2024/02/13 11:08:24;;;;;;;1.77;0.30;;;1.20;99.90;;;;;;5061263;28;20125;-62
2024/02/13 11:10:53;;;;;;;4.72;0.40;;;1.20;99.90;;;;;;5062496;28;20071;-60
2024/02/13 11:13:23;;;;;;;1.58;0.20;;;1.20;99.90;;;;;;5061740;28;20440;-61
2024/02/13 11:15:56;;;;;;;0.88;0.30;;;1.20;99.90;;;;;;5062986;28;20529;-64
2024/02/13 11:18:28;;;;;;;1.45;1.23;;;1.20;99.90;;;;;;5062055;28;20520;-62
2024/02/13 11:21:01;;;;;;;2.35;0.30;;;1.20;99.90;;;;;;5061960;28;20572;-61
2024/02/13 11:23:29;;;;;;;1.80;0.38;;;1.20;99.90;;;;;;5061904;28;20101;-59
2024/02/13 11:26:01;;;;;;;1.65;0.30;;;1.20;99.90;;;;;;5061924;28;20416;-62
2024/02/13 11:28:33;;;;;;;0.90;0.30;;;1.20;99.90;;;;;;5061072;28;20123;-60
2024/02/13 11:31:00;;;;;;;0.50;0.50;;;1.20;99.90;;;;;;5062267;28;20058;-62
2024/02/13 11:33:28;;;;;;;2.08;0.63;;;1.20;99.90;;;;;;5061680;28;20068;-62
2024/02/13 11:35:58;;;;;;;1.30;0.20;;;1.20;99.90;;;;;;5061720;28;20068;-63
2024/02/13 11:38:27;;;;;;;0.45;0.32;;;1.20;99.90;;;;;;5060875;28;20048;-63
2024/02/13 11:40:54;;;;;;;1.73;0.75;;;1.20;99.90;;;;;;5061983;28;20044;-62
2024/02/13 11:43:26;;;;;;;1.25;0.38;;;1.20;99.90;;;;;;5060860;28;20772;-61
2024/02/13 11:45:57;;;;;;;0.82;0.60;;;1.20;99.90;;;;;;5063349;28;20048;-60
2024/02/13 11:48:25;;;;;;;;;;;1.20;99.90;;;;;;5063653;28;20606;-62
2024/02/13 11:50:58;;;;;;;3.72;1.27;;;1.20;99.90;;;;;;5062561;28;19928;-60
2024/02/13 11:53:26;;;;;;;2.97;1.30;;;1.20;99.90;;;;;;5062591;28;20036;-60
2024/02/13 11:55:54;;;;;;;3.25;2.00;;;1.20;99.90;;;;;;5063394;28;20040;-60
2024/02/13 11:58:22;;;;;;;1.90;1.58;;;1.20;99.90;;;;;;5063389;28;20049;-66
2024/02/13 12:01:02;;;;;;;3.15;1.83;;;1.20;99.90;;;;;;5063953;28;20040;-61
2024/02/13 12:03:34;;;;;;;2.50;2.17;;;1.10;99.90;;;;;;5063273;28;20044;-60
2024/02/13 12:06:05;;;;;;;2.40;2.20;;;1.10;99.90;;;;;;5063901;28;20095;-62
2024/02/13 12:08:35;;;;;;;2.25;1.40;;;1.10;99.90;;;;;;5062535;28;20488;-65
2024/02/13 12:11:03;;;;;;;2.10;1.67;;;1.10;99.90;;;;;;5063316;28;20760;-62
2024/02/13 12:13:32;;;;;;;3.40;1.92;;;1.00;99.90;;;;;;5063001;28;20040;-59
2024/02/13 12:15:59;;;;;;;2.30;2.05;;;1.10;99.90;;;;;;5063110;28;20044;-64
2024/02/13 12:18:30;;;;;;;3.08;2.38;;;1.10;99.90;;;;;;5062702;28;20499;-62
2024/02/13 12:20:58;;;;;;;2.83;2.38;;;1.10;99.90;;;;;;5063206;28;20071;-64
2024/02/13 12:23:26;;;;;;;3.90;2.50;;;1.10;99.90;;;;;;5066444;28;20040;-64
2024/02/13 12:26:00;;;;;;;5.53;2.80;;;1.10;99.90;;;;;;5066294;28;20056;-59
2024/02/13 12:28:28;;;;;;;7.72;3.80;;;1.00;99.90;;;;;;5066130;28;20052;-62
2024/02/13 12:30:58;;;;;;;7.60;3.60;;;1.00;99.90;;;;;;5066633;28;20043;-62
2024/02/13 12:33:26;;;;;;;4.60;2.75;;;1.00;99.90;;;;;;5066799;28;20068;-60
2024/02/13 12:36:18;;;;;;;3.72;2.03;;;1.00;99.90;;;;;;5064465;28;20079;-65
2024/02/13 12:38:46;;;;;;;4.70;2.30;;;1.00;99.90;;;;;;5065432;28;20135;-59
2024/02/13 12:41:13;;;;;;;2.50;2.00;;;1.00;99.90;;;;;;5065655;28;20049;-64
2024/02/13 12:43:41;;;;;;;4.13;2.47;;;1.00;99.90;;;;;;5064291;28;20181;-59
2024/02/13 12:46:10;;;;;;;2.15;1.95;;;1.00;99.90;;;;;;5064759;28;20572;-61
2024/02/13 12:48:42;;;;;;;2.45;2.10;;;0.90;99.90;;;;;;5065528;28;20048;-63
2024/02/13 12:51:09;;;;;;;2.20;2.00;;;1.00;99.90;;;;;;5066245;28;20040;-63
2024/02/13 12:53:42;;;;;;;3.63;2.15;;;1.00;99.90;;;;;;5064585;28;20040;-60
2024/02/13 12:56:10;;;;;;;2.88;1.70;;;1.00;99.90;;;;;;5066362;28;20044;-62
2024/02/13 12:58:37;;;;;;;3.60;1.73;;;1.00;99.90;;;;;;5065402;28;20129;-60
2024/02/13 13:01:04;;;;;;;4.72;2.35;;;0.90;99.90;;;;;;5066226;28;20067;-59
2024/02/13 13:03:33;;;;;;;6.85;2.53;;;0.90;99.90;;;;;;5065608;28;20708;-60
2024/02/13 13:06:01;;;;;;;5.55;2.20;;;0.90;99.90;;;;;;5065864;28;20091;-59